Ariton, Alabama
Current Conditions -  °F | °C
As of 4:53 PM on Saturday 20 Dec 2014 (Local Time) from KLOR Reporting Station
Overcast Overcast  
Wind Chill: 12°   Ceiling: 9500
Heat Index: 12°   Visibility: 10mi
Dew Point:   Wind: 5mph
Humidity: 83%   Direction: 30°NNE
Pressure: 30.12"   Gusts: NA
Location:  31.6°N, 85.72°W
Report Text: KLOR 202253Z AUTO 03004KT 10SM SCT018 OVC095 12/09 A3012 RMK AO2 SLP197 T01220094 TSNO PNO $
Loading
Personal Weather Stations






























Interactive Weather Map New forecast layout! Learn more

10-Day Weather Forecast

Advertisements
Track Severe Weather on mobile